sensor_id;sensor_type;location;lat;lon;timestamp;temperature;humidity
11639;DHT22;5875;35.940;126.892;2022-07-21T00:01:30;26.80;99.90
11639;DHT22;5875;35.940;126.892;2022-07-21T00:03:57;26.80;99.90
11639;DHT22;5875;35.940;126.892;2022-07-21T00:06:24;26.80;99.90
11639;DHT22;5875;35.940;126.892;2022-07-21T00:08:52;26.70;99.90
11639;DHT22;5875;35.940;126.892;2022-07-21T00:11:19;26.70;99.90
11639;DHT22;5875;35.940;126.892;2022-07-21T00:13:46;26.70;99.90
11639;DHT22;5875;35.940;126.892;2022-07-21T00:16:14;26.70;99.90
11639;DHT22;5875;35.940;126.892;2022-07-21T00:18:41;26.80;99.90
11639;DHT22;5875;35.940;126.892;2022-07-21T00:21:08;26.90;99.90
11639;DHT22;5875;35.940;126.892;2022-07-21T00:23:35;26.90;99.90
11639;DHT22;5875;35.940;126.892;2022-07-21T00:26:03;26.80;99.90
11639;DHT22;5875;35.940;126.892;2022-07-21T00:28:30;26.90;99.90
11639;DHT22;5875;35.940;126.892;2022-07-21T00:30:57;26.90;99.90
11639;DHT22;5875;35.940;126.892;2022-07-21T00:33:24;26.90;99.90
11639;DHT22;5875;35.940;126.892;2022-07-21T00:35:51;26.90;99.90
11639;DHT22;5875;35.940;126.892;2022-07-21T00:38:18;26.90;99.90
11639;DHT22;5875;35.940;126.892;2022-07-21T00:40:46;26.90;99.90
11639;DHT22;5875;35.940;126.892;2022-07-21T00:43:13;26.90;99.90
11639;DHT22;5875;35.940;126.892;2022-07-21T00:45:40;26.90;99.90
11639;DHT22;5875;35.940;126.892;2022-07-21T00:48:07;27.00;99.90
11639;DHT22;5875;35.940;126.892;2022-07-21T00:50:34;27.00;99.90
11639;DHT22;5875;35.940;126.892;2022-07-21T00:53:02;27.10;99.90
11639;DHT22;5875;35.940;126.892;2022-07-21T00:55:29;27.40;99.90
11639;DHT22;5875;35.940;126.892;2022-07-21T00:57:56;27.50;99.90
11639;DHT22;5875;35.940;126.892;2022-07-21T01:00:26;27.50;99.90
11639;DHT22;5875;35.940;126.892;2022-07-21T01:02:55;27.50;99.90
11639;DHT22;5875;35.940;126.892;2022-07-21T01:05:22;27.40;99.90
11639;DHT22;5875;35.940;126.892;2022-07-21T01:07:52;27.50;99.90
11639;DHT22;5875;35.940;126.892;2022-07-21T01:10:22;27.50;99.90
11639;DHT22;5875;35.940;126.892;2022-07-21T01:12:49;27.50;99.90
11639;DHT22;5875;35.940;126.892;2022-07-21T01:15:18;27.50;99.90
11639;DHT22;5875;35.940;126.892;2022-07-21T01:17:46;27.50;99.90
11639;DHT22;5875;35.940;126.892;2022-07-21T01:20:16;27.50;99.90
11639;DHT22;5875;35.940;126.892;2022-07-21T01:22:47;27.40;99.90
11639;DHT22;5875;35.940;126.892;2022-07-21T01:25:14;27.70;99.90
11639;DHT22;5875;35.940;126.892;2022-07-21T01:27:42;28.10;99.90
11639;DHT22;5875;35.940;126.892;2022-07-21T01:30:10;28.30;99.90
11639;DHT22;5875;35.940;126.892;2022-07-21T01:32:39;28.40;99.90
11639;DHT22;5875;35.940;126.892;2022-07-21T01:35:09;28.60;99.90
11639;DHT22;5875;35.940;126.892;2022-07-21T01:37:39;28.60;99.90
11639;DHT22;5875;35.940;126.892;2022-07-21T01:40:07;28.50;99.90
11639;DHT22;5875;35.940;126.892;2022-07-21T01:42:52;28.60;99.90
11639;DHT22;5875;35.940;126.892;2022-07-21T01:45:21;28.50;99.90
11639;DHT22;5875;35.940;126.892;2022-07-21T01:47:49;28.30;99.90
11639;DHT22;5875;35.940;126.892;2022-07-21T01:50:17;28.20;99.90
11639;DHT22;5875;35.940;126.892;2022-07-21T01:52:47;28.10;99.90
11639;DHT22;5875;35.940;126.892;2022-07-21T01:55:14;28.00;99.90
11639;DHT22;5875;35.940;126.892;2022-07-21T01:57:41;28.00;99.90
11639;DHT22;5875;35.940;126.892;2022-07-21T02:00:09;28.10;99.90
11639;DHT22;5875;35.940;126.892;2022-07-21T02:02:37;28.40;99.90
11639;DHT22;5875;35.940;126.892;2022-07-21T02:05:04;28.60;99.90
11639;DHT22;5875;35.940;126.892;2022-07-21T02:07:32;28.80;99.90
11639;DHT22;5875;35.940;126.892;2022-07-21T02:10:00;28.80;99.90
11639;DHT22;5875;35.940;126.892;2022-07-21T02:12:27;28.90;99.90
11639;DHT22;5875;35.940;126.892;2022-07-21T02:14:54;29.00;99.90
11639;DHT22;5875;35.940;126.892;2022-07-21T02:17:21;29.00;99.90
11639;DHT22;5875;35.940;126.892;2022-07-21T02:19:48;28.80;99.90
11639;DHT22;5875;35.940;126.892;2022-07-21T02:22:16;28.50;99.90
11639;DHT22;5875;35.940;126.892;2022-07-21T02:24:43;28.40;99.90
11639;DHT22;5875;35.940;126.892;2022-07-21T02:27:10;28.30;99.90
11639;DHT22;5875;35.940;126.892;2022-07-21T02:29:37;28.20;99.90
11639;DHT22;5875;35.940;126.892;2022-07-21T02:32:05;28.10;99.90
11639;DHT22;5875;35.940;126.892;2022-07-21T02:34:32;28.00;99.90
11639;DHT22;5875;35.940;126.892;2022-07-21T02:36:59;27.90;99.90
11639;DHT22;5875;35.940;126.892;2022-07-21T02:39:26;27.90;99.90
11639;DHT22;5875;35.940;126.892;2022-07-21T02:41:54;28.00;99.90
11639;DHT22;5875;35.940;126.892;2022-07-21T02:44:21;28.00;99.90
11639;DHT22;5875;35.940;126.892;2022-07-21T02:46:48;28.00;99.90
11639;DHT22;5875;35.940;126.892;2022-07-21T02:49:15;28.10;99.90
11639;DHT22;5875;35.940;126.892;2022-07-21T02:51:42;28.20;99.90
11639;DHT22;5875;35.940;126.892;2022-07-21T02:54:10;28.30;99.90
11639;DHT22;5875;35.940;126.892;2022-07-21T02:56:37;28.30;99.90
11639;DHT22;5875;35.940;126.892;2022-07-21T02:59:05;28.50;99.90
11639;DHT22;5875;35.940;126.892;2022-07-21T03:01:32;28.60;99.90
11639;DHT22;5875;35.940;126.892;2022-07-21T03:04:00;28.60;99.90
11639;DHT22;5875;35.940;126.892;2022-07-21T03:06:27;28.50;99.90
11639;DHT22;5875;35.940;126.892;2022-07-21T03:08:54;28.50;99.90
11639;DHT22;5875;35.940;126.892;2022-07-21T03:11:21;28.40;99.90
11639;DHT22;5875;35.940;126.892;2022-07-21T03:13:49;28.30;99.90
11639;DHT22;5875;35.940;126.892;2022-07-21T03:16:16;28.20;99.90
11639;DHT22;5875;35.940;126.892;2022-07-21T03:18:43;28.10;99.90
11639;DHT22;5875;35.940;126.892;2022-07-21T03:21:10;28.00;99.90
11639;DHT22;5875;35.940;126.892;2022-07-21T03:23:38;28.00;99.90
11639;DHT22;5875;35.940;126.892;2022-07-21T03:26:05;28.00;99.90
11639;DHT22;5875;35.940;126.892;2022-07-21T03:28:32;28.10;99.90
11639;DHT22;5875;35.940;126.892;2022-07-21T03:30:59;28.10;99.90
11639;DHT22;5875;35.940;126.892;2022-07-21T03:33:26;28.30;99.90
11639;DHT22;5875;35.940;126.892;2022-07-21T03:35:54;28.70;99.90
11639;DHT22;5875;35.940;126.892;2022-07-21T03:38:22;28.80;99.90
11639;DHT22;5875;35.940;126.892;2022-07-21T03:40:50;28.70;99.90
11639;DHT22;5875;35.940;126.892;2022-07-21T03:43:17;28.60;99.90
11639;DHT22;5875;35.940;126.892;2022-07-21T03:45:44;28.40;99.90
11639;DHT22;5875;35.940;126.892;2022-07-21T03:48:12;28.30;99.90
11639;DHT22;5875;35.940;126.892;2022-07-21T03:50:41;28.20;99.90
11639;DHT22;5875;35.940;126.892;2022-07-21T03:53:09;28.10;99.90
11639;DHT22;5875;35.940;126.892;2022-07-21T03:55:36;28.20;99.90
11639;DHT22;5875;35.940;126.892;2022-07-21T03:58:05;28.20;99.90
11639;DHT22;5875;35.940;126.892;2022-07-21T04:00:39;28.10;99.90
11639;DHT22;5875;35.940;126.892;2022-07-21T04:03:07;28.10;99.90
11639;DHT22;5875;35.940;126.892;2022-07-21T04:05:35;28.00;99.90
11639;DHT22;5875;35.940;126.892;2022-07-21T04:08:02;27.90;99.90
11639;DHT22;5875;35.940;126.892;2022-07-21T04:10:32;27.80;99.90
11639;DHT22;5875;35.940;126.892;2022-07-21T04:13:02;27.80;99.90
11639;DHT22;5875;35.940;126.892;2022-07-21T04:15:30;27.80;99.90
11639;DHT22;5875;35.940;126.892;2022-07-21T04:17:57;27.80;99.90
11639;DHT22;5875;35.940;126.892;2022-07-21T04:20:25;27.70;99.90
11639;DHT22;5875;35.940;126.892;2022-07-21T04:22:54;27.60;99.90
11639;DHT22;5875;35.940;126.892;2022-07-21T04:25:21;27.60;99.90
11639;DHT22;5875;35.940;126.892;2022-07-21T04:27:50;27.50;99.90
11639;DHT22;5875;35.940;126.892;2022-07-21T04:30:20;27.50;99.90
11639;DHT22;5875;35.940;126.892;2022-07-21T04:32:48;27.40;99.90
11639;DHT22;5875;35.940;126.892;2022-07-21T04:35:16;27.40;99.90
11639;DHT22;5875;35.940;126.892;2022-07-21T04:37:43;27.40;99.90
11639;DHT22;5875;35.940;126.892;2022-07-21T04:40:12;27.40;99.90
11639;DHT22;5875;35.940;126.892;2022-07-21T04:42:40;27.40;99.90
11639;DHT22;5875;35.940;126.892;2022-07-21T04:45:09;27.30;99.90
11639;DHT22;5875;35.940;126.892;2022-07-21T04:50:14;27.20;99.90
11639;DHT22;5875;35.940;126.892;2022-07-21T04:52:42;27.10;99.90
11639;DHT22;5875;35.940;126.892;2022-07-21T04:55:10;27.10;99.90
11639;DHT22;5875;35.940;126.892;2022-07-21T04:57:39;27.10;99.90
11639;DHT22;5875;35.940;126.892;2022-07-21T05:00:11;27.00;99.90
11639;DHT22;5875;35.940;126.892;2022-07-21T05:02:39;27.00;99.90
11639;DHT22;5875;35.940;126.892;2022-07-21T05:05:07;26.90;99.90
11639;DHT22;5875;35.940;126.892;2022-07-21T05:07:34;26.90;99.90
11639;DHT22;5875;35.940;126.892;2022-07-21T05:10:08;27.00;99.90
11639;DHT22;5875;35.940;126.892;2022-07-21T05:12:36;26.90;99.90
11639;DHT22;5875;35.940;126.892;2022-07-21T05:15:06;26.90;99.90
11639;DHT22;5875;35.940;126.892;2022-07-21T05:17:33;26.90;99.90
11639;DHT22;5875;35.940;126.892;2022-07-21T05:20:01;26.90;99.90
11639;DHT22;5875;35.940;126.892;2022-07-21T05:22:28;26.90;99.90
11639;DHT22;5875;35.940;126.892;2022-07-21T05:24:58;26.90;99.90
11639;DHT22;5875;35.940;126.892;2022-07-21T05:27:26;27.00;99.90
11639;DHT22;5875;35.940;126.892;2022-07-21T05:29:53;27.00;99.90
11639;DHT22;5875;35.940;126.892;2022-07-21T05:32:21;27.10;99.90
11639;DHT22;5875;35.940;126.892;2022-07-21T05:34:48;27.00;99.90
11639;DHT22;5875;35.940;126.892;2022-07-21T05:37:15;27.00;99.90
11639;DHT22;5875;35.940;126.892;2022-07-21T05:39:42;27.00;99.90
11639;DHT22;5875;35.940;126.892;2022-07-21T05:42:10;26.90;99.90
11639;DHT22;5875;35.940;126.892;2022-07-21T05:44:37;26.90;99.90
11639;DHT22;5875;35.940;126.892;2022-07-21T05:47:04;26.90;99.90
11639;DHT22;5875;35.940;126.892;2022-07-21T05:49:31;27.10;99.90
11639;DHT22;5875;35.940;126.892;2022-07-21T05:51:58;27.20;99.90
11639;DHT22;5875;35.940;126.892;2022-07-21T05:54:25;27.30;99.90
11639;DHT22;5875;35.940;126.892;2022-07-21T05:56:53;27.30;99.90
11639;DHT22;5875;35.940;126.892;2022-07-21T05:59:20;27.30;99.90
11639;DHT22;5875;35.940;126.892;2022-07-21T06:01:47;27.30;99.90
11639;DHT22;5875;35.940;126.892;2022-07-21T06:04:14;27.30;99.90
11639;DHT22;5875;35.940;126.892;2022-07-21T06:06:41;27.30;99.90
11639;DHT22;5875;35.940;126.892;2022-07-21T06:09:08;27.40;99.90
11639;DHT22;5875;35.940;126.892;2022-07-21T06:11:35;27.40;99.90
11639;DHT22;5875;35.940;126.892;2022-07-21T06:14:03;27.40;99.90
11639;DHT22;5875;35.940;126.892;2022-07-21T06:16:30;27.40;99.90
11639;DHT22;5875;35.940;126.892;2022-07-21T06:18:58;27.30;99.90
11639;DHT22;5875;35.940;126.892;2022-07-21T06:21:25;27.30;99.90
11639;DHT22;5875;35.940;126.892;2022-07-21T06:23:52;27.20;99.90
11639;DHT22;5875;35.940;126.892;2022-07-21T06:26:20;27.20;99.90
11639;DHT22;5875;35.940;126.892;2022-07-21T06:28:47;27.10;99.90
11639;DHT22;5875;35.940;126.892;2022-07-21T06:31:14;27.00;99.90
11639;DHT22;5875;35.940;126.892;2022-07-21T06:33:41;27.00;99.90
11639;DHT22;5875;35.940;126.892;2022-07-21T06:36:09;27.00;99.90
11639;DHT22;5875;35.940;126.892;2022-07-21T06:38:36;27.00;99.90
11639;DHT22;5875;35.940;126.892;2022-07-21T06:41:04;26.90;99.90
11639;DHT22;5875;35.940;126.892;2022-07-21T06:43:31;26.90;99.90
11639;DHT22;5875;35.940;126.892;2022-07-21T06:45:58;26.90;99.90
11639;DHT22;5875;35.940;126.892;2022-07-21T06:48:26;26.90;99.90
11639;DHT22;5875;35.940;126.892;2022-07-21T06:50:53;26.90;99.90
11639;DHT22;5875;35.940;126.892;2022-07-21T06:53:21;26.90;99.90
11639;DHT22;5875;35.940;126.892;2022-07-21T06:55:49;26.90;99.90
11639;DHT22;5875;35.940;126.892;2022-07-21T06:58:21;26.90;99.90
11639;DHT22;5875;35.940;126.892;2022-07-21T07:00:50;27.00;99.90
11639;DHT22;5875;35.940;126.892;2022-07-21T07:03:18;27.10;99.90
11639;DHT22;5875;35.940;126.892;2022-07-21T07:05:47;27.00;99.90
11639;DHT22;5875;35.940;126.892;2022-07-21T07:08:14;27.10;99.90
11639;DHT22;5875;35.940;126.892;2022-07-21T07:10:43;27.10;99.90
11639;DHT22;5875;35.940;126.892;2022-07-21T07:13:12;27.00;99.90
11639;DHT22;5875;35.940;126.892;2022-07-21T07:15:40;27.00;99.90
11639;DHT22;5875;35.940;126.892;2022-07-21T07:18:07;27.00;99.90
11639;DHT22;5875;35.940;126.892;2022-07-21T07:20:34;27.00;99.90
11639;DHT22;5875;35.940;126.892;2022-07-21T07:23:01;26.90;99.90
11639;DHT22;5875;35.940;126.892;2022-07-21T07:25:29;26.90;99.90
11639;DHT22;5875;35.940;126.892;2022-07-21T07:27:57;26.80;99.90
11639;DHT22;5875;35.940;126.892;2022-07-21T07:30:25;26.80;99.90
11639;DHT22;5875;35.940;126.892;2022-07-21T07:32:52;26.90;99.90
11639;DHT22;5875;35.940;126.892;2022-07-21T07:35:19;26.90;99.90
11639;DHT22;5875;35.940;126.892;2022-07-21T07:37:48;26.90;99.90
11639;DHT22;5875;35.940;126.892;2022-07-21T07:40:18;26.90;99.90
11639;DHT22;5875;35.940;126.892;2022-07-21T07:42:46;26.90;99.90
11639;DHT22;5875;35.940;126.892;2022-07-21T07:45:14;27.00;99.90
11639;DHT22;5875;35.940;126.892;2022-07-21T07:47:42;27.00;99.90
11639;DHT22;5875;35.940;126.892;2022-07-21T07:50:12;26.90;99.90
11639;DHT22;5875;35.940;126.892;2022-07-21T07:52:41;26.90;99.90
11639;DHT22;5875;35.940;126.892;2022-07-21T07:55:09;26.90;99.90
11639;DHT22;5875;35.940;126.892;2022-07-21T07:57:38;26.80;99.90
11639;DHT22;5875;35.940;126.892;2022-07-21T08:00:09;26.70;99.90
11639;DHT22;5875;35.940;126.892;2022-07-21T08:02:36;26.70;99.90
11639;DHT22;5875;35.940;126.892;2022-07-21T08:05:04;26.70;99.90
11639;DHT22;5875;35.940;126.892;2022-07-21T08:07:32;26.60;99.90
11639;DHT22;5875;35.940;126.892;2022-07-21T08:09:59;26.60;99.90
11639;DHT22;5875;35.940;126.892;2022-07-21T08:12:26;26.60;99.90
11639;DHT22;5875;35.940;126.892;2022-07-21T08:14:53;26.60;99.90
11639;DHT22;5875;35.940;126.892;2022-07-21T08:17:20;26.60;99.90
11639;DHT22;5875;35.940;126.892;2022-07-21T08:19:48;26.60;99.90
11639;DHT22;5875;35.940;126.892;2022-07-21T08:22:15;26.50;99.90
11639;DHT22;5875;35.940;126.892;2022-07-21T08:24:42;26.60;99.90
11639;DHT22;5875;35.940;126.892;2022-07-21T08:27:09;26.60;99.90
11639;DHT22;5875;35.940;126.892;2022-07-21T08:29:36;26.60;99.90
11639;DHT22;5875;35.940;126.892;2022-07-21T08:32:04;26.70;99.90
11639;DHT22;5875;35.940;126.892;2022-07-21T08:34:31;26.80;99.90
11639;DHT22;5875;35.940;126.892;2022-07-21T08:36:58;26.80;99.90
11639;DHT22;5875;35.940;126.892;2022-07-21T08:39:26;26.90;99.90
11639;DHT22;5875;35.940;126.892;2022-07-21T08:41:53;27.00;99.90
11639;DHT22;5875;35.940;126.892;2022-07-21T08:44:23;27.00;99.90
11639;DHT22;5875;35.940;126.892;2022-07-21T08:46:51;27.00;99.90
11639;DHT22;5875;35.940;126.892;2022-07-21T08:49:21;27.10;99.90
11639;DHT22;5875;35.940;126.892;2022-07-21T08:51:50;27.10;99.90
11639;DHT22;5875;35.940;126.892;2022-07-21T08:54:19;27.20;99.90
11639;DHT22;5875;35.940;126.892;2022-07-21T08:56:47;27.20;99.90
11639;DHT22;5875;35.940;126.892;2022-07-21T08:59:14;27.20;99.90
11639;DHT22;5875;35.940;126.892;2022-07-21T09:01:42;27.20;99.90
11639;DHT22;5875;35.940;126.892;2022-07-21T09:04:28;27.20;99.90
11639;DHT22;5875;35.940;126.892;2022-07-21T09:07:02;27.20;99.90
11639;DHT22;5875;35.940;126.892;2022-07-21T09:09:31;27.20;99.90
11639;DHT22;5875;35.940;126.892;2022-07-21T09:11:59;27.20;99.90
11639;DHT22;5875;35.940;126.892;2022-07-21T09:14:30;27.10;99.90
11639;DHT22;5875;35.940;126.892;2022-07-21T09:17:00;27.20;99.90
11639;DHT22;5875;35.940;126.892;2022-07-21T09:19:30;27.20;99.90
11639;DHT22;5875;35.940;126.892;2022-07-21T09:22:05;27.20;99.90
11639;DHT22;5875;35.940;126.892;2022-07-21T09:24:37;27.20;99.90
11639;DHT22;5875;35.940;126.892;2022-07-21T09:27:21;27.20;99.90
11639;DHT22;5875;35.940;126.892;2022-07-21T09:29:51;27.10;99.90
11639;DHT22;5875;35.940;126.892;2022-07-21T09:37:28;27.10;99.90
11639;DHT22;5875;35.940;126.892;2022-07-21T09:40:00;27.00;99.90
11639;DHT22;5875;35.940;126.892;2022-07-21T09:42:37;26.90;99.90
11639;DHT22;5875;35.940;126.892;2022-07-21T09:45:06;26.90;99.90
11639;DHT22;5875;35.940;126.892;2022-07-21T09:47:35;26.90;99.90
11639;DHT22;5875;35.940;126.892;2022-07-21T09:50:07;26.80;99.90
11639;DHT22;5875;35.940;126.892;2022-07-21T09:52:37;26.70;99.90
11639;DHT22;5875;35.940;126.892;2022-07-21T09:57:34;26.60;99.90
11639;DHT22;5875;35.940;126.892;2022-07-21T10:00:05;26.60;99.90
11639;DHT22;5875;35.940;126.892;2022-07-21T10:02:33;26.50;99.90
11639;DHT22;5875;35.940;126.892;2022-07-21T10:05:09;26.50;99.90
11639;DHT22;5875;35.940;126.892;2022-07-21T10:07:39;26.50;99.90
11639;DHT22;5875;35.940;126.892;2022-07-21T10:10:07;26.40;99.90
11639;DHT22;5875;35.940;126.892;2022-07-21T10:12:35;26.40;99.90
11639;DHT22;5875;35.940;126.892;2022-07-21T10:15:02;26.40;99.90
11639;DHT22;5875;35.940;126.892;2022-07-21T10:17:30;26.30;99.90
11639;DHT22;5875;35.940;126.892;2022-07-21T10:20:16;26.30;99.90
11639;DHT22;5875;35.940;126.892;2022-07-21T10:25:15;26.20;99.90
11639;DHT22;5875;35.940;126.892;2022-07-21T10:30:43;26.00;99.90
11639;DHT22;5875;35.940;126.892;2022-07-21T10:33:11;26.00;99.90
11639;DHT22;5875;35.940;126.892;2022-07-21T10:35:56;25.90;99.90
11639;DHT22;5875;35.940;126.892;2022-07-21T10:38:31;25.90;99.90
11639;DHT22;5875;35.940;126.892;2022-07-21T10:40:59;25.80;99.90
11639;DHT22;5875;35.940;126.892;2022-07-21T10:45:55;25.70;99.90
11639;DHT22;5875;35.940;126.892;2022-07-21T10:51:17;25.70;99.90
11639;DHT22;5875;35.940;126.892;2022-07-21T10:53:44;25.60;99.90
11639;DHT22;5875;35.940;126.892;2022-07-21T10:56:30;25.60;99.90
11639;DHT22;5875;35.940;126.892;2022-07-21T10:58:58;25.60;99.90
11639;DHT22;5875;35.940;126.892;2022-07-21T11:01:25;25.60;99.90
11639;DHT22;5875;35.940;126.892;2022-07-21T11:04:09;25.50;99.90
11639;DHT22;5875;35.940;126.892;2022-07-21T11:06:38;25.50;99.90
11639;DHT22;5875;35.940;126.892;2022-07-21T11:09:08;25.50;99.90
11639;DHT22;5875;35.940;126.892;2022-07-21T11:14:41;25.40;99.90
11639;DHT22;5875;35.940;126.892;2022-07-21T11:17:29;25.40;99.90
11639;DHT22;5875;35.940;126.892;2022-07-21T11:19:57;25.40;99.90
11639;DHT22;5875;35.940;126.892;2022-07-21T11:22:29;25.30;99.90
11639;DHT22;5875;35.940;126.892;2022-07-21T11:24:59;25.30;99.90
11639;DHT22;5875;35.940;126.892;2022-07-21T11:27:32;25.30;99.90
11639;DHT22;5875;35.940;126.892;2022-07-21T11:30:04;25.30;99.90
11639;DHT22;5875;35.940;126.892;2022-07-21T11:32:31;25.30;99.90
11639;DHT22;5875;35.940;126.892;2022-07-21T11:35:04;25.30;99.90
11639;DHT22;5875;35.940;126.892;2022-07-21T11:37:35;25.20;99.90
11639;DHT22;5875;35.940;126.892;2022-07-21T11:40:04;25.20;99.90
11639;DHT22;5875;35.940;126.892;2022-07-21T11:42:32;25.20;99.90
11639;DHT22;5875;35.940;126.892;2022-07-21T11:45:00;25.20;99.90
11639;DHT22;5875;35.940;126.892;2022-07-21T11:47:27;25.20;99.90
11639;DHT22;5875;35.940;126.892;2022-07-21T11:49:57;25.20;99.90
11639;DHT22;5875;35.940;126.892;2022-07-21T11:52:30;25.20;99.90
11639;DHT22;5875;35.940;126.892;2022-07-21T11:54:59;25.10;99.90
11639;DHT22;5875;35.940;126.892;2022-07-21T11:57:27;25.10;99.90
11639;DHT22;5875;35.940;126.892;2022-07-21T11:59:55;25.10;99.90
11639;DHT22;5875;35.940;126.892;2022-07-21T12:02:31;25.10;99.90
11639;DHT22;5875;35.940;126.892;2022-07-21T12:05:02;25.10;99.90
11639;DHT22;5875;35.940;126.892;2022-07-21T12:07:36;25.10;99.90
11639;DHT22;5875;35.940;126.892;2022-07-21T12:10:08;25.00;99.90
11639;DHT22;5875;35.940;126.892;2022-07-21T12:12:41;25.00;99.90
11639;DHT22;5875;35.940;126.892;2022-07-21T12:17:55;25.00;99.90
11639;DHT22;5875;35.940;126.892;2022-07-21T12:20:37;24.90;99.90
11639;DHT22;5875;35.940;126.892;2022-07-21T12:23:24;25.00;99.90
11639;DHT22;5875;35.940;126.892;2022-07-21T12:25:53;24.90;99.90
11639;DHT22;5875;35.940;126.892;2022-07-21T12:28:20;24.90;99.90
11639;DHT22;5875;35.940;126.892;2022-07-21T12:30:49;24.90;99.90
11639;DHT22;5875;35.940;126.892;2022-07-21T12:33:27;24.90;99.90
11639;DHT22;5875;35.940;126.892;2022-07-21T12:36:06;24.90;99.90
11639;DHT22;5875;35.940;126.892;2022-07-21T12:41:08;24.90;99.90
11639;DHT22;5875;35.940;126.892;2022-07-21T12:43:36;24.90;99.90
11639;DHT22;5875;35.940;126.892;2022-07-21T12:46:11;24.90;99.90
11639;DHT22;5875;35.940;126.892;2022-07-21T12:48:38;24.80;99.90
11639;DHT22;5875;35.940;126.892;2022-07-21T12:53:49;24.80;99.90
11639;DHT22;5875;35.940;126.892;2022-07-21T12:56:21;24.80;99.90
11639;DHT22;5875;35.940;126.892;2022-07-21T12:58:49;24.80;99.90
11639;DHT22;5875;35.940;126.892;2022-07-21T13:01:19;24.80;99.90
11639;DHT22;5875;35.940;126.892;2022-07-21T13:03:46;24.80;99.90
11639;DHT22;5875;35.940;126.892;2022-07-21T13:06:14;24.70;99.90
11639;DHT22;5875;35.940;126.892;2022-07-21T13:08:44;24.70;99.90
11639;DHT22;5875;35.940;126.892;2022-07-21T13:11:19;24.70;99.90
11639;DHT22;5875;35.940;126.892;2022-07-21T13:14:05;24.70;99.90
11639;DHT22;5875;35.940;126.892;2022-07-21T13:16:32;24.70;99.90
11639;DHT22;5875;35.940;126.892;2022-07-21T13:18:59;24.70;99.90
11639;DHT22;5875;35.940;126.892;2022-07-21T13:21:26;24.60;99.90
11639;DHT22;5875;35.940;126.892;2022-07-21T13:23:53;24.70;99.90
11639;DHT22;5875;35.940;126.892;2022-07-21T13:26:21;24.60;99.90
11639;DHT22;5875;35.940;126.892;2022-07-21T13:28:48;24.60;99.90
11639;DHT22;5875;35.940;126.892;2022-07-21T13:31:15;24.60;99.90
11639;DHT22;5875;35.940;126.892;2022-07-21T13:33:43;24.60;99.90
11639;DHT22;5875;35.940;126.892;2022-07-21T13:36:10;24.60;99.90
11639;DHT22;5875;35.940;126.892;2022-07-21T13:38:37;24.60;99.90
11639;DHT22;5875;35.940;126.892;2022-07-21T13:41:04;24.60;99.90
11639;DHT22;5875;35.940;126.892;2022-07-21T13:43:32;24.60;99.90
11639;DHT22;5875;35.940;126.892;2022-07-21T13:46:00;24.60;99.90
11639;DHT22;5875;35.940;126.892;2022-07-21T13:48:27;24.60;99.90
11639;DHT22;5875;35.940;126.892;2022-07-21T13:50:54;24.50;99.90
11639;DHT22;5875;35.940;126.892;2022-07-21T13:53:21;24.50;99.90
11639;DHT22;5875;35.940;126.892;2022-07-21T13:55:48;24.50;99.90
11639;DHT22;5875;35.940;126.892;2022-07-21T13:58:20;24.50;99.90
11639;DHT22;5875;35.940;126.892;2022-07-21T14:00:47;24.50;99.90
11639;DHT22;5875;35.940;126.892;2022-07-21T14:03:14;24.40;99.90
11639;DHT22;5875;35.940;126.892;2022-07-21T14:05:41;24.50;99.90
11639;DHT22;5875;35.940;126.892;2022-07-21T14:08:08;24.50;99.90
11639;DHT22;5875;35.940;126.892;2022-07-21T14:10:36;24.40;99.90
11639;DHT22;5875;35.940;126.892;2022-07-21T14:13:04;24.40;99.90
11639;DHT22;5875;35.940;126.892;2022-07-21T14:15:31;24.40;99.90
11639;DHT22;5875;35.940;126.892;2022-07-21T14:17:58;24.40;99.90
11639;DHT22;5875;35.940;126.892;2022-07-21T14:20:26;24.40;99.90
11639;DHT22;5875;35.940;126.892;2022-07-21T14:22:54;24.40;99.90
11639;DHT22;5875;35.940;126.892;2022-07-21T14:25:22;24.40;99.90
11639;DHT22;5875;35.940;126.892;2022-07-21T14:27:54;24.40;99.90
11639;DHT22;5875;35.940;126.892;2022-07-21T14:30:23;24.40;99.90
11639;DHT22;5875;35.940;126.892;2022-07-21T14:32:51;24.40;99.90
11639;DHT22;5875;35.940;126.892;2022-07-21T14:35:18;24.40;99.90
11639;DHT22;5875;35.940;126.892;2022-07-21T14:37:48;24.40;99.90
11639;DHT22;5875;35.940;126.892;2022-07-21T14:40:16;24.40;99.90
11639;DHT22;5875;35.940;126.892;2022-07-21T14:42:43;24.40;99.90
11639;DHT22;5875;35.940;126.892;2022-07-21T14:45:12;24.40;99.90
11639;DHT22;5875;35.940;126.892;2022-07-21T14:47:40;24.40;99.90
11639;DHT22;5875;35.940;126.892;2022-07-21T14:50:07;24.40;99.90
11639;DHT22;5875;35.940;126.892;2022-07-21T14:52:35;24.40;99.90
11639;DHT22;5875;35.940;126.892;2022-07-21T14:55:02;24.40;99.90
11639;DHT22;5875;35.940;126.892;2022-07-21T14:57:29;24.40;99.90
11639;DHT22;5875;35.940;126.892;2022-07-21T14:59:56;24.40;99.90
11639;DHT22;5875;35.940;126.892;2022-07-21T15:02:24;24.40;99.90
11639;DHT22;5875;35.940;126.892;2022-07-21T15:04:51;24.40;99.90
11639;DHT22;5875;35.940;126.892;2022-07-21T15:07:19;24.40;99.90
11639;DHT22;5875;35.940;126.892;2022-07-21T15:09:46;24.40;99.90
11639;DHT22;5875;35.940;126.892;2022-07-21T15:12:13;24.40;99.90
11639;DHT22;5875;35.940;126.892;2022-07-21T15:14:41;24.30;99.90
11639;DHT22;5875;35.940;126.892;2022-07-21T15:17:08;24.40;99.90
11639;DHT22;5875;35.940;126.892;2022-07-21T15:19:35;24.40;99.90
11639;DHT22;5875;35.940;126.892;2022-07-21T15:22:03;24.40;99.90
11639;DHT22;5875;35.940;126.892;2022-07-21T15:24:30;24.30;99.90
11639;DHT22;5875;35.940;126.892;2022-07-21T15:26:57;24.30;99.90
11639;DHT22;5875;35.940;126.892;2022-07-21T15:29:24;24.30;99.90
11639;DHT22;5875;35.940;126.892;2022-07-21T15:31:51;24.30;99.90
11639;DHT22;5875;35.940;126.892;2022-07-21T15:34:19;24.30;99.90
11639;DHT22;5875;35.940;126.892;2022-07-21T15:36:47;24.30;99.90
11639;DHT22;5875;35.940;126.892;2022-07-21T15:39:14;24.30;99.90
11639;DHT22;5875;35.940;126.892;2022-07-21T15:41:41;24.20;99.90
11639;DHT22;5875;35.940;126.892;2022-07-21T15:44:09;24.20;99.90
11639;DHT22;5875;35.940;126.892;2022-07-21T15:46:36;24.20;99.90
11639;DHT22;5875;35.940;126.892;2022-07-21T15:49:05;24.20;99.90
11639;DHT22;5875;35.940;126.892;2022-07-21T15:51:32;24.20;99.90
11639;DHT22;5875;35.940;126.892;2022-07-21T15:54:00;24.20;99.90
11639;DHT22;5875;35.940;126.892;2022-07-21T15:56:27;24.20;99.90